sensor_id;sensor_type;location;lat;lon;timestamp;temperature;humidity
23122;DHT22;11730;51.248;22.534;2022-12-07T00:01:39;1.50;99.90
23122;DHT22;11730;51.248;22.534;2022-12-07T00:04:10;1.40;99.90
23122;DHT22;11730;51.248;22.534;2022-12-07T00:06:41;1.40;99.90
23122;DHT22;11730;51.248;22.534;2022-12-07T00:09:15;1.50;99.90
23122;DHT22;11730;51.248;22.534;2022-12-07T00:11:42;1.50;99.90
23122;DHT22;11730;51.248;22.534;2022-12-07T00:14:12;1.50;99.90
23122;DHT22;11730;51.248;22.534;2022-12-07T00:16:40;1.50;99.90
23122;DHT22;11730;51.248;22.534;2022-12-07T00:19:08;1.50;99.90
23122;DHT22;11730;51.248;22.534;2022-12-07T00:21:36;2.50;99.90
23122;DHT22;11730;51.248;22.534;2022-12-07T00:24:04;1.60;99.90
23122;DHT22;11730;51.248;22.534;2022-12-07T00:26:33;1.60;99.90
23122;DHT22;11730;51.248;22.534;2022-12-07T00:29:21;1.60;99.90
23122;DHT22;11730;51.248;22.534;2022-12-07T00:31:51;1.60;99.90
23122;DHT22;11730;51.248;22.534;2022-12-07T00:34:19;1.60;99.90
23122;DHT22;11730;51.248;22.534;2022-12-07T00:36:47;1.70;99.90
23122;DHT22;11730;51.248;22.534;2022-12-07T00:39:14;2.10;99.90
23122;DHT22;11730;51.248;22.534;2022-12-07T00:41:42;1.70;99.90
23122;DHT22;11730;51.248;22.534;2022-12-07T00:44:09;1.70;99.90
23122;DHT22;11730;51.248;22.534;2022-12-07T00:46:36;1.70;99.90
23122;DHT22;11730;51.248;22.534;2022-12-07T00:49:03;1.70;99.90
23122;DHT22;11730;51.248;22.534;2022-12-07T00:51:29;1.80;99.90
23122;DHT22;11730;51.248;22.534;2022-12-07T00:53:56;1.70;99.90
23122;DHT22;11730;51.248;22.534;2022-12-07T00:56:26;1.80;99.90
23122;DHT22;11730;51.248;22.534;2022-12-07T00:58:55;1.80;99.90
23122;DHT22;11730;51.248;22.534;2022-12-07T01:01:24;1.80;99.90
23122;DHT22;11730;51.248;22.534;2022-12-07T01:03:52;1.70;99.90
23122;DHT22;11730;51.248;22.534;2022-12-07T01:06:21;1.70;99.90
23122;DHT22;11730;51.248;22.534;2022-12-07T01:08:48;1.70;99.90
23122;DHT22;11730;51.248;22.534;2022-12-07T01:11:19;1.70;99.90
23122;DHT22;11730;51.248;22.534;2022-12-07T01:13:48;1.70;99.90
23122;DHT22;11730;51.248;22.534;2022-12-07T01:16:16;1.70;99.90
23122;DHT22;11730;51.248;22.534;2022-12-07T01:18:47;1.80;99.90
23122;DHT22;11730;51.248;22.534;2022-12-07T01:21:17;1.70;99.90
23122;DHT22;11730;51.248;22.534;2022-12-07T01:23:44;1.80;99.90
23122;DHT22;11730;51.248;22.534;2022-12-07T01:26:14;1.70;99.90
23122;DHT22;11730;51.248;22.534;2022-12-07T01:28:41;1.70;99.90
23122;DHT22;11730;51.248;22.534;2022-12-07T01:31:11;1.80;99.90
23122;DHT22;11730;51.248;22.534;2022-12-07T01:33:39;1.80;99.90
23122;DHT22;11730;51.248;22.534;2022-12-07T01:36:07;1.70;99.90
23122;DHT22;11730;51.248;22.534;2022-12-07T01:38:34;1.70;99.90
23122;DHT22;11730;51.248;22.534;2022-12-07T01:41:02;1.70;99.90
23122;DHT22;11730;51.248;22.534;2022-12-07T01:43:31;1.80;99.90
23122;DHT22;11730;51.248;22.534;2022-12-07T01:46:01;1.80;99.90
23122;DHT22;11730;51.248;22.534;2022-12-07T01:48:40;1.80;99.90
23122;DHT22;11730;51.248;22.534;2022-12-07T01:51:12;1.80;99.90
23122;DHT22;11730;51.248;22.534;2022-12-07T01:53:43;1.80;99.90
23122;DHT22;11730;51.248;22.534;2022-12-07T01:56:14;1.80;99.90
23122;DHT22;11730;51.248;22.534;2022-12-07T01:58:43;1.80;99.90
23122;DHT22;11730;51.248;22.534;2022-12-07T02:01:11;1.80;99.90
23122;DHT22;11730;51.248;22.534;2022-12-07T02:03:40;1.80;99.90
23122;DHT22;11730;51.248;22.534;2022-12-07T02:06:10;1.80;99.90
23122;DHT22;11730;51.248;22.534;2022-12-07T02:08:37;1.70;99.90
23122;DHT22;11730;51.248;22.534;2022-12-07T02:11:05;1.80;99.90
23122;DHT22;11730;51.248;22.534;2022-12-07T02:13:35;1.80;99.90
23122;DHT22;11730;51.248;22.534;2022-12-07T02:24:31;1.80;99.90
23122;DHT22;11730;51.248;22.534;2022-12-07T02:32:56;1.80;99.90
23122;DHT22;11730;51.248;22.534;2022-12-07T02:35:34;1.70;99.90
23122;DHT22;11730;51.248;22.534;2022-12-07T02:40:51;1.90;99.90
23122;DHT22;11730;51.248;22.534;2022-12-07T02:43:24;1.80;99.90
23122;DHT22;11730;51.248;22.534;2022-12-07T02:45:54;1.80;99.90
23122;DHT22;11730;51.248;22.534;2022-12-07T02:48:23;1.90;99.90
23122;DHT22;11730;51.248;22.534;2022-12-07T02:50:52;1.80;99.90
23122;DHT22;11730;51.248;22.534;2022-12-07T02:53:42;1.70;99.90
23122;DHT22;11730;51.248;22.534;2022-12-07T02:56:35;1.60;99.90
23122;DHT22;11730;51.248;22.534;2022-12-07T03:05:03;1.60;99.90
23122;DHT22;11730;51.248;22.534;2022-12-07T03:07:51;1.60;99.90
23122;DHT22;11730;51.248;22.534;2022-12-07T03:11:14;1.80;99.90
23122;DHT22;11730;51.248;22.534;2022-12-07T03:13:40;1.70;99.90
23122;DHT22;11730;51.248;22.534;2022-12-07T03:16:14;1.70;99.90
23122;DHT22;11730;51.248;22.534;2022-12-07T03:21:20;1.60;99.90
23122;DHT22;11730;51.248;22.534;2022-12-07T03:23:51;1.60;99.90
23122;DHT22;11730;51.248;22.534;2022-12-07T03:26:21;1.50;99.90
23122;DHT22;11730;51.248;22.534;2022-12-07T03:28:52;1.50;99.90
23122;DHT22;11730;51.248;22.534;2022-12-07T03:31:22;1.50;99.90
23122;DHT22;11730;51.248;22.534;2022-12-07T03:33:59;1.40;99.90
23122;DHT22;11730;51.248;22.534;2022-12-07T03:36:40;1.40;99.90
23122;DHT22;11730;51.248;22.534;2022-12-07T03:39:33;1.30;99.90
23122;DHT22;11730;51.248;22.534;2022-12-07T03:42:02;1.30;99.90
23122;DHT22;11730;51.248;22.534;2022-12-07T03:44:32;1.20;99.90
23122;DHT22;11730;51.248;22.534;2022-12-07T03:52:42;1.10;99.90
23122;DHT22;11730;51.248;22.534;2022-12-07T03:57:38;1.00;99.90
23122;DHT22;11730;51.248;22.534;2022-12-07T04:00:08;1.10;99.90
23122;DHT22;11730;51.248;22.534;2022-12-07T04:02:36;1.00;99.90
23122;DHT22;11730;51.248;22.534;2022-12-07T04:05:03;1.00;99.90
23122;DHT22;11730;51.248;22.534;2022-12-07T04:07:30;1.00;99.90
23122;DHT22;11730;51.248;22.534;2022-12-07T04:09:57;1.00;99.90
23122;DHT22;11730;51.248;22.534;2022-12-07T04:12:24;0.90;99.90
23122;DHT22;11730;51.248;22.534;2022-12-07T04:14:51;1.00;99.90
23122;DHT22;11730;51.248;22.534;2022-12-07T04:17:19;1.00;99.90
23122;DHT22;11730;51.248;22.534;2022-12-07T04:19:46;1.00;99.90
23122;DHT22;11730;51.248;22.534;2022-12-07T04:22:12;1.00;99.90
23122;DHT22;11730;51.248;22.534;2022-12-07T04:24:39;1.00;99.90
23122;DHT22;11730;51.248;22.534;2022-12-07T04:27:06;1.00;99.90
23122;DHT22;11730;51.248;22.534;2022-12-07T04:29:33;0.90;99.90
23122;DHT22;11730;51.248;22.534;2022-12-07T04:32:00;0.80;99.90
23122;DHT22;11730;51.248;22.534;2022-12-07T04:34:27;0.80;99.90
23122;DHT22;11730;51.248;22.534;2022-12-07T04:36:54;0.90;99.90
23122;DHT22;11730;51.248;22.534;2022-12-07T04:39:29;0.90;99.90
23122;DHT22;11730;51.248;22.534;2022-12-07T04:41:57;0.90;99.90
23122;DHT22;11730;51.248;22.534;2022-12-07T04:44:25;0.90;99.90
23122;DHT22;11730;51.248;22.534;2022-12-07T04:46:53;0.90;99.90
23122;DHT22;11730;51.248;22.534;2022-12-07T04:49:20;0.80;99.90
23122;DHT22;11730;51.248;22.534;2022-12-07T04:51:47;0.80;99.90
23122;DHT22;11730;51.248;22.534;2022-12-07T04:54:15;0.80;99.90
23122;DHT22;11730;51.248;22.534;2022-12-07T04:56:43;0.80;99.90
23122;DHT22;11730;51.248;22.534;2022-12-07T04:59:12;0.90;99.90
23122;DHT22;11730;51.248;22.534;2022-12-07T05:01:39;0.80;99.90
23122;DHT22;11730;51.248;22.534;2022-12-07T05:04:07;0.90;99.90
23122;DHT22;11730;51.248;22.534;2022-12-07T05:06:34;0.90;99.90
23122;DHT22;11730;51.248;22.534;2022-12-07T05:09:02;0.90;99.90
23122;DHT22;11730;51.248;22.534;2022-12-07T05:11:29;0.90;99.90
23122;DHT22;11730;51.248;22.534;2022-12-07T05:14:17;0.90;99.90
23122;DHT22;11730;51.248;22.534;2022-12-07T05:16:46;0.90;99.90
23122;DHT22;11730;51.248;22.534;2022-12-07T05:19:14;0.90;99.90
23122;DHT22;11730;51.248;22.534;2022-12-07T05:21:41;0.90;99.90
23122;DHT22;11730;51.248;22.534;2022-12-07T05:24:10;0.90;99.90
23122;DHT22;11730;51.248;22.534;2022-12-07T05:26:38;0.90;99.90
23122;DHT22;11730;51.248;22.534;2022-12-07T05:29:05;0.90;99.90
23122;DHT22;11730;51.248;22.534;2022-12-07T05:31:32;0.80;99.90
23122;DHT22;11730;51.248;22.534;2022-12-07T05:33:59;0.90;99.90
23122;DHT22;11730;51.248;22.534;2022-12-07T05:36:26;1.00;99.90
23122;DHT22;11730;51.248;22.534;2022-12-07T05:38:55;1.00;99.90
23122;DHT22;11730;51.248;22.534;2022-12-07T05:41:22;0.90;99.90
23122;DHT22;11730;51.248;22.534;2022-12-07T05:44:08;0.80;99.90
23122;DHT22;11730;51.248;22.534;2022-12-07T05:46:35;0.90;99.90
23122;DHT22;11730;51.248;22.534;2022-12-07T05:49:02;1.00;99.90
23122;DHT22;11730;51.248;22.534;2022-12-07T05:51:29;0.90;99.90
23122;DHT22;11730;51.248;22.534;2022-12-07T05:53:56;0.90;99.90
23122;DHT22;11730;51.248;22.534;2022-12-07T05:56:23;0.90;99.90
23122;DHT22;11730;51.248;22.534;2022-12-07T05:58:50;1.10;99.90
23122;DHT22;11730;51.248;22.534;2022-12-07T06:01:36;1.10;99.90
23122;DHT22;11730;51.248;22.534;2022-12-07T06:04:04;1.10;99.90
23122;DHT22;11730;51.248;22.534;2022-12-07T06:06:31;1.10;99.90
23122;DHT22;11730;51.248;22.534;2022-12-07T06:08:58;1.00;99.90
23122;DHT22;11730;51.248;22.534;2022-12-07T06:11:25;1.00;99.90
23122;DHT22;11730;51.248;22.534;2022-12-07T06:14:11;1.00;99.90
23122;DHT22;11730;51.248;22.534;2022-12-07T06:16:38;1.00;99.90
23122;DHT22;11730;51.248;22.534;2022-12-07T06:19:05;1.00;99.90
23122;DHT22;11730;51.248;22.534;2022-12-07T06:21:32;1.00;99.90
23122;DHT22;11730;51.248;22.534;2022-12-07T06:23:59;1.00;99.90
23122;DHT22;11730;51.248;22.534;2022-12-07T06:26:26;1.10;99.90
23122;DHT22;11730;51.248;22.534;2022-12-07T06:28:53;1.10;99.90
23122;DHT22;11730;51.248;22.534;2022-12-07T06:31:20;1.10;99.90
23122;DHT22;11730;51.248;22.534;2022-12-07T06:33:47;1.10;99.90
23122;DHT22;11730;51.248;22.534;2022-12-07T06:36:14;1.20;99.90
23122;DHT22;11730;51.248;22.534;2022-12-07T06:38:41;1.10;99.90
23122;DHT22;11730;51.248;22.534;2022-12-07T06:41:08;1.10;99.90
23122;DHT22;11730;51.248;22.534;2022-12-07T06:43:35;1.10;99.90
23122;DHT22;11730;51.248;22.534;2022-12-07T06:46:03;1.10;99.90
23122;DHT22;11730;51.248;22.534;2022-12-07T06:48:30;1.10;99.90
23122;DHT22;11730;51.248;22.534;2022-12-07T06:50:57;1.10;99.90
23122;DHT22;11730;51.248;22.534;2022-12-07T06:53:24;1.20;99.90
23122;DHT22;11730;51.248;22.534;2022-12-07T06:55:51;1.00;99.90
23122;DHT22;11730;51.248;22.534;2022-12-07T06:58:18;1.00;99.90
23122;DHT22;11730;51.248;22.534;2022-12-07T07:00:47;1.00;99.90
23122;DHT22;11730;51.248;22.534;2022-12-07T07:03:14;1.10;99.90
23122;DHT22;11730;51.248;22.534;2022-12-07T07:05:42;1.10;99.90
23122;DHT22;11730;51.248;22.534;2022-12-07T07:08:09;1.10;99.90
23122;DHT22;11730;51.248;22.534;2022-12-07T07:10:51;1.00;99.90
23122;DHT22;11730;51.248;22.534;2022-12-07T07:13:18;1.00;99.90
23122;DHT22;11730;51.248;22.534;2022-12-07T07:15:45;1.00;99.90
23122;DHT22;11730;51.248;22.534;2022-12-07T07:18:12;1.10;99.90
23122;DHT22;11730;51.248;22.534;2022-12-07T07:20:40;1.10;99.90
23122;DHT22;11730;51.248;22.534;2022-12-07T07:23:07;1.00;99.90
23122;DHT22;11730;51.248;22.534;2022-12-07T07:25:34;1.00;99.90
23122;DHT22;11730;51.248;22.534;2022-12-07T07:28:03;1.00;99.90
23122;DHT22;11730;51.248;22.534;2022-12-07T07:30:30;1.00;99.90
23122;DHT22;11730;51.248;22.534;2022-12-07T07:32:58;0.90;99.90
23122;DHT22;11730;51.248;22.534;2022-12-07T07:35:26;0.90;99.90
23122;DHT22;11730;51.248;22.534;2022-12-07T07:37:54;0.90;99.90
23122;DHT22;11730;51.248;22.534;2022-12-07T07:40:21;1.00;99.90
23122;DHT22;11730;51.248;22.534;2022-12-07T07:42:49;0.90;99.90
23122;DHT22;11730;51.248;22.534;2022-12-07T07:45:17;1.00;99.90
23122;DHT22;11730;51.248;22.534;2022-12-07T07:47:44;0.90;99.90
23122;DHT22;11730;51.248;22.534;2022-12-07T07:50:11;0.90;99.90
23122;DHT22;11730;51.248;22.534;2022-12-07T07:52:38;0.90;99.90
23122;DHT22;11730;51.248;22.534;2022-12-07T07:55:06;1.00;99.90
23122;DHT22;11730;51.248;22.534;2022-12-07T07:57:38;1.00;99.90
23122;DHT22;11730;51.248;22.534;2022-12-07T08:00:08;1.00;99.90
23122;DHT22;11730;51.248;22.534;2022-12-07T08:02:35;1.10;99.90
23122;DHT22;11730;51.248;22.534;2022-12-07T08:05:02;1.10;99.90
23122;DHT22;11730;51.248;22.534;2022-12-07T08:07:29;0.90;99.90
23122;DHT22;11730;51.248;22.534;2022-12-07T08:09:56;1.00;99.90
23122;DHT22;11730;51.248;22.534;2022-12-07T08:12:23;1.00;99.90
23122;DHT22;11730;51.248;22.534;2022-12-07T08:14:50;0.90;99.90
23122;DHT22;11730;51.248;22.534;2022-12-07T08:17:20;1.00;99.90
23122;DHT22;11730;51.248;22.534;2022-12-07T08:19:47;1.10;99.90
23122;DHT22;11730;51.248;22.534;2022-12-07T08:22:13;1.10;99.90
23122;DHT22;11730;51.248;22.534;2022-12-07T08:24:40;1.20;99.90
23122;DHT22;11730;51.248;22.534;2022-12-07T08:27:07;1.20;99.90
23122;DHT22;11730;51.248;22.534;2022-12-07T08:29:34;1.10;99.90
23122;DHT22;11730;51.248;22.534;2022-12-07T08:32:01;1.10;99.90
23122;DHT22;11730;51.248;22.534;2022-12-07T08:34:35;1.10;99.90
23122;DHT22;11730;51.248;22.534;2022-12-07T08:37:03;1.10;99.90
23122;DHT22;11730;51.248;22.534;2022-12-07T08:39:30;1.00;99.90
23122;DHT22;11730;51.248;22.534;2022-12-07T08:41:58;1.00;99.90
23122;DHT22;11730;51.248;22.534;2022-12-07T08:44:25;0.90;99.90
23122;DHT22;11730;51.248;22.534;2022-12-07T08:46:57;1.00;99.90
23122;DHT22;11730;51.248;22.534;2022-12-07T08:49:30;1.00;99.90
23122;DHT22;11730;51.248;22.534;2022-12-07T08:51:59;0.90;99.90
23122;DHT22;11730;51.248;22.534;2022-12-07T08:54:26;1.10;99.90
23122;DHT22;11730;51.248;22.534;2022-12-07T08:56:54;1.00;99.90
23122;DHT22;11730;51.248;22.534;2022-12-07T08:59:26;1.00;99.90
23122;DHT22;11730;51.248;22.534;2022-12-07T09:01:53;1.00;99.90
23122;DHT22;11730;51.248;22.534;2022-12-07T09:04:20;1.00;99.90
23122;DHT22;11730;51.248;22.534;2022-12-07T09:06:47;1.10;99.90
23122;DHT22;11730;51.248;22.534;2022-12-07T09:09:15;1.00;99.90
23122;DHT22;11730;51.248;22.534;2022-12-07T09:11:42;1.00;99.90
23122;DHT22;11730;51.248;22.534;2022-12-07T09:14:12;1.00;99.90
23122;DHT22;11730;51.248;22.534;2022-12-07T09:16:39;1.10;99.90
23122;DHT22;11730;51.248;22.534;2022-12-07T09:19:08;1.30;99.90
23122;DHT22;11730;51.248;22.534;2022-12-07T09:24:02;1.10;99.90
23122;DHT22;11730;51.248;22.534;2022-12-07T09:26:29;1.30;99.90
23122;DHT22;11730;51.248;22.534;2022-12-07T09:28:56;1.10;99.90
23122;DHT22;11730;51.248;22.534;2022-12-07T09:31:22;1.10;99.90
23122;DHT22;11730;51.248;22.534;2022-12-07T09:33:56;1.10;99.90
23122;DHT22;11730;51.248;22.534;2022-12-07T09:36:25;1.10;99.90
23122;DHT22;11730;51.248;22.534;2022-12-07T09:38:53;1.20;99.90
23122;DHT22;11730;51.248;22.534;2022-12-07T09:41:21;1.10;99.90
23122;DHT22;11730;51.248;22.534;2022-12-07T09:43:48;1.20;99.90
23122;DHT22;11730;51.248;22.534;2022-12-07T09:46:19;1.10;99.90
23122;DHT22;11730;51.248;22.534;2022-12-07T09:48:48;1.20;99.90
23122;DHT22;11730;51.248;22.534;2022-12-07T09:51:19;1.30;99.90
23122;DHT22;11730;51.248;22.534;2022-12-07T09:53:52;1.30;99.90
23122;DHT22;11730;51.248;22.534;2022-12-07T09:56:20;1.10;99.90
23122;DHT22;11730;51.248;22.534;2022-12-07T09:58:48;1.10;99.90
23122;DHT22;11730;51.248;22.534;2022-12-07T10:01:18;1.20;99.90
23122;DHT22;11730;51.248;22.534;2022-12-07T10:03:54;1.10;99.90
23122;DHT22;11730;51.248;22.534;2022-12-07T10:06:22;1.10;99.90
23122;DHT22;11730;51.248;22.534;2022-12-07T10:08:49;1.10;99.90
23122;DHT22;11730;51.248;22.534;2022-12-07T10:11:16;1.10;99.90
23122;DHT22;11730;51.248;22.534;2022-12-07T10:13:45;1.30;99.90
23122;DHT22;11730;51.248;22.534;2022-12-07T10:16:40;1.20;99.90
23122;DHT22;11730;51.248;22.534;2022-12-07T10:22:03;1.30;99.90
23122;DHT22;11730;51.248;22.534;2022-12-07T10:24:31;1.30;99.90
23122;DHT22;11730;51.248;22.534;2022-12-07T10:26:58;1.30;99.90
23122;DHT22;11730;51.248;22.534;2022-12-07T10:29:34;1.20;99.90
23122;DHT22;11730;51.248;22.534;2022-12-07T10:32:05;1.20;99.90
23122;DHT22;11730;51.248;22.534;2022-12-07T10:34:37;1.20;99.90
23122;DHT22;11730;51.248;22.534;2022-12-07T10:39:54;1.20;99.90
23122;DHT22;11730;51.248;22.534;2022-12-07T10:45:06;1.10;99.90
23122;DHT22;11730;51.248;22.534;2022-12-07T10:47:42;1.20;99.90
23122;DHT22;11730;51.248;22.534;2022-12-07T10:58:52;1.20;99.90
23122;DHT22;11730;51.248;22.534;2022-12-07T11:04:38;1.30;99.90
23122;DHT22;11730;51.248;22.534;2022-12-07T11:07:43;1.30;99.90
23122;DHT22;11730;51.248;22.534;2022-12-07T11:13:22;1.20;99.90
23122;DHT22;11730;51.248;22.534;2022-12-07T11:29:53;1.30;99.90
23122;DHT22;11730;51.248;22.534;2022-12-07T11:35:48;1.30;99.90
23122;DHT22;11730;51.248;22.534;2022-12-07T11:38:45;1.30;99.90
23122;DHT22;11730;51.248;22.534;2022-12-07T11:41:11;1.20;99.90
23122;DHT22;11730;51.248;22.534;2022-12-07T11:46:43;1.30;99.90
23122;DHT22;11730;51.248;22.534;2022-12-07T11:52:25;1.30;99.90
23122;DHT22;11730;51.248;22.534;2022-12-07T11:54:53;1.30;99.90
23122;DHT22;11730;51.248;22.534;2022-12-07T11:57:41;1.30;99.90
23122;DHT22;11730;51.248;22.534;2022-12-07T12:00:15;1.30;99.90
23122;DHT22;11730;51.248;22.534;2022-12-07T12:02:49;1.30;99.90
23122;DHT22;11730;51.248;22.534;2022-12-07T12:05:21;1.50;99.90
23122;DHT22;11730;51.248;22.534;2022-12-07T12:23:37;1.50;99.90
23122;DHT22;11730;51.248;22.534;2022-12-07T12:26:14;1.50;99.90
23122;DHT22;11730;51.248;22.534;2022-12-07T12:28:57;1.50;99.90
23122;DHT22;11730;51.248;22.534;2022-12-07T12:31:33;1.40;99.90
23122;DHT22;11730;51.248;22.534;2022-12-07T12:34:40;1.30;99.90
23122;DHT22;11730;51.248;22.534;2022-12-07T12:42:53;1.60;99.90
23122;DHT22;11730;51.248;22.534;2022-12-07T12:45:21;1.60;99.90
23122;DHT22;11730;51.248;22.534;2022-12-07T12:47:55;1.60;99.90
23122;DHT22;11730;51.248;22.534;2022-12-07T12:53:24;1.50;99.90
23122;DHT22;11730;51.248;22.534;2022-12-07T13:13:31;1.60;99.90
23122;DHT22;11730;51.248;22.534;2022-12-07T13:15:54;1.60;99.90
23122;DHT22;11730;51.248;22.534;2022-12-07T13:21:01;1.50;99.90
23122;DHT22;11730;51.248;22.534;2022-12-07T13:26:21;1.40;99.90
23122;DHT22;11730;51.248;22.534;2022-12-07T13:29:17;1.40;99.90
23122;DHT22;11730;51.248;22.534;2022-12-07T13:31:56;1.30;99.90
23122;DHT22;11730;51.248;22.534;2022-12-07T13:37:25;1.30;99.90
23122;DHT22;11730;51.248;22.534;2022-12-07T13:40:00;1.30;99.90
23122;DHT22;11730;51.248;22.534;2022-12-07T13:42:33;1.40;99.90
23122;DHT22;11730;51.248;22.534;2022-12-07T13:45:24;1.30;99.90
23122;DHT22;11730;51.248;22.534;2022-12-07T13:50:57;1.40;99.90
23122;DHT22;11730;51.248;22.534;2022-12-07T13:53:24;1.30;99.90
23122;DHT22;11730;51.248;22.534;2022-12-07T13:55:55;1.30;99.90
23122;DHT22;11730;51.248;22.534;2022-12-07T13:58:22;1.30;99.90
23122;DHT22;11730;51.248;22.534;2022-12-07T14:00:50;1.30;99.90
23122;DHT22;11730;51.248;22.534;2022-12-07T14:05:45;1.30;99.90
23122;DHT22;11730;51.248;22.534;2022-12-07T14:13:33;1.20;99.90
23122;DHT22;11730;51.248;22.534;2022-12-07T14:16:02;1.40;99.90
23122;DHT22;11730;51.248;22.534;2022-12-07T14:18:40;1.30;99.90
23122;DHT22;11730;51.248;22.534;2022-12-07T14:23:39;1.40;99.90
23122;DHT22;11730;51.248;22.534;2022-12-07T14:26:19;1.30;99.90
23122;DHT22;11730;51.248;22.534;2022-12-07T14:28:47;1.20;99.90
23122;DHT22;11730;51.248;22.534;2022-12-07T14:31:17;1.30;99.90
23122;DHT22;11730;51.248;22.534;2022-12-07T14:33:59;1.30;99.90
23122;DHT22;11730;51.248;22.534;2022-12-07T14:36:26;1.20;99.90
23122;DHT22;11730;51.248;22.534;2022-12-07T14:38:53;1.40;99.90
23122;DHT22;11730;51.248;22.534;2022-12-07T14:41:23;1.20;99.90
23122;DHT22;11730;51.248;22.534;2022-12-07T14:44:12;1.20;99.90
23122;DHT22;11730;51.248;22.534;2022-12-07T14:46:59;1.30;99.90
23122;DHT22;11730;51.248;22.534;2022-12-07T14:49:46;1.20;99.90
23122;DHT22;11730;51.248;22.534;2022-12-07T14:52:27;1.20;99.90
23122;DHT22;11730;51.248;22.534;2022-12-07T14:55:29;1.40;99.90
23122;DHT22;11730;51.248;22.534;2022-12-07T14:57:57;1.50;99.90
23122;DHT22;11730;51.248;22.534;2022-12-07T15:00:25;1.40;99.90
23122;DHT22;11730;51.248;22.534;2022-12-07T15:02:53;1.20;99.90
23122;DHT22;11730;51.248;22.534;2022-12-07T15:05:21;1.30;99.90
23122;DHT22;11730;51.248;22.534;2022-12-07T15:07:49;1.30;99.90
23122;DHT22;11730;51.248;22.534;2022-12-07T15:10:19;1.30;99.90
23122;DHT22;11730;51.248;22.534;2022-12-07T15:12:50;1.50;99.90
23122;DHT22;11730;51.248;22.534;2022-12-07T15:15:17;1.40;99.90
23122;DHT22;11730;51.248;22.534;2022-12-07T15:17:44;1.40;99.90
23122;DHT22;11730;51.248;22.534;2022-12-07T15:20:15;1.30;99.90
23122;DHT22;11730;51.248;22.534;2022-12-07T15:22:43;1.40;99.90
23122;DHT22;11730;51.248;22.534;2022-12-07T15:25:13;1.40;99.90
23122;DHT22;11730;51.248;22.534;2022-12-07T15:27:41;1.50;99.90
23122;DHT22;11730;51.248;22.534;2022-12-07T15:30:08;1.50;99.90
23122;DHT22;11730;51.248;22.534;2022-12-07T15:32:35;1.30;99.90
23122;DHT22;11730;51.248;22.534;2022-12-07T15:35:03;1.50;99.90
23122;DHT22;11730;51.248;22.534;2022-12-07T15:37:31;1.40;99.90
23122;DHT22;11730;51.248;22.534;2022-12-07T15:39:57;1.50;99.90
23122;DHT22;11730;51.248;22.534;2022-12-07T15:42:32;1.40;99.90
23122;DHT22;11730;51.248;22.534;2022-12-07T15:45:00;1.30;99.90
23122;DHT22;11730;51.248;22.534;2022-12-07T15:47:35;1.40;99.90
23122;DHT22;11730;51.248;22.534;2022-12-07T15:52:53;1.40;99.90
23122;DHT22;11730;51.248;22.534;2022-12-07T15:55:20;1.40;99.90
23122;DHT22;11730;51.248;22.534;2022-12-07T15:57:49;1.50;99.90
23122;DHT22;11730;51.248;22.534;2022-12-07T16:00:17;1.40;99.90
23122;DHT22;11730;51.248;22.534;2022-12-07T16:02:44;1.40;99.90
23122;DHT22;11730;51.248;22.534;2022-12-07T16:05:11;1.40;99.90
23122;DHT22;11730;51.248;22.534;2022-12-07T16:07:38;1.50;99.90
23122;DHT22;11730;51.248;22.534;2022-12-07T16:10:06;1.40;99.90
23122;DHT22;11730;51.248;22.534;2022-12-07T16:12:33;1.40;99.90
23122;DHT22;11730;51.248;22.534;2022-12-07T16:17:28;1.40;99.90
23122;DHT22;11730;51.248;22.534;2022-12-07T16:19:55;1.50;99.90
23122;DHT22;11730;51.248;22.534;2022-12-07T16:22:22;1.50;99.90
23122;DHT22;11730;51.248;22.534;2022-12-07T16:24:48;1.60;99.90
23122;DHT22;11730;51.248;22.534;2022-12-07T16:27:16;1.50;99.90
23122;DHT22;11730;51.248;22.534;2022-12-07T16:29:43;1.40;99.90
23122;DHT22;11730;51.248;22.534;2022-12-07T16:32:10;1.50;99.90
23122;DHT22;11730;51.248;22.534;2022-12-07T16:34:37;1.40;99.90
23122;DHT22;11730;51.248;22.534;2022-12-07T16:37:03;1.40;99.90
23122;DHT22;11730;51.248;22.534;2022-12-07T16:39:33;1.40;99.90
23122;DHT22;11730;51.248;22.534;2022-12-07T16:42:01;1.60;99.90
23122;DHT22;11730;51.248;22.534;2022-12-07T16:44:28;1.50;99.90
23122;DHT22;11730;51.248;22.534;2022-12-07T16:46:55;1.60;99.90
23122;DHT22;11730;51.248;22.534;2022-12-07T16:49:22;1.50;99.90
23122;DHT22;11730;51.248;22.534;2022-12-07T16:51:51;1.50;99.90
23122;DHT22;11730;51.248;22.534;2022-12-07T16:54:38;1.50;99.90
23122;DHT22;11730;51.248;22.534;2022-12-07T16:57:05;1.50;99.90
23122;DHT22;11730;51.248;22.534;2022-12-07T16:59:33;1.50;99.90
23122;DHT22;11730;51.248;22.534;2022-12-07T17:02:00;1.50;99.90
23122;DHT22;11730;51.248;22.534;2022-12-07T17:06:57;1.40;99.90
23122;DHT22;11730;51.248;22.534;2022-12-07T17:09:28;1.60;99.90
23122;DHT22;11730;51.248;22.534;2022-12-07T17:11:55;1.50;99.90
23122;DHT22;11730;51.248;22.534;2022-12-07T17:17:08;1.70;99.90
23122;DHT22;11730;51.248;22.534;2022-12-07T17:19:35;1.50;99.90
23122;DHT22;11730;51.248;22.534;2022-12-07T17:22:02;1.60;99.90
23122;DHT22;11730;51.248;22.534;2022-12-07T17:24:29;1.60;99.90
23122;DHT22;11730;51.248;22.534;2022-12-07T17:26:56;1.60;99.90
23122;DHT22;11730;51.248;22.534;2022-12-07T17:29:23;1.50;99.90
23122;DHT22;11730;51.248;22.534;2022-12-07T17:31:51;1.60;99.90
23122;DHT22;11730;51.248;22.534;2022-12-07T17:36:46;1.50;99.90
23122;DHT22;11730;51.248;22.534;2022-12-07T17:39:16;1.40;99.90
23122;DHT22;11730;51.248;22.534;2022-12-07T17:41:46;1.50;99.90
23122;DHT22;11730;51.248;22.534;2022-12-07T17:44:32;1.50;99.90
23122;DHT22;11730;51.248;22.534;2022-12-07T17:46:59;1.50;99.90
23122;DHT22;11730;51.248;22.534;2022-12-07T17:49:28;1.60;99.90
23122;DHT22;11730;51.248;22.534;2022-12-07T17:51:55;1.70;99.90
23122;DHT22;11730;51.248;22.534;2022-12-07T17:54:42;1.70;99.90
23122;DHT22;11730;51.248;22.534;2022-12-07T17:57:09;1.70;99.90
23122;DHT22;11730;51.248;22.534;2022-12-07T17:59:36;1.70;99.90
23122;DHT22;11730;51.248;22.534;2022-12-07T18:02:03;1.80;99.90
23122;DHT22;11730;51.248;22.534;2022-12-07T18:04:31;1.80;99.90
23122;DHT22;11730;51.248;22.534;2022-12-07T18:06:58;1.70;99.90
23122;DHT22;11730;51.248;22.534;2022-12-07T18:09:25;1.60;99.90
23122;DHT22;11730;51.248;22.534;2022-12-07T18:11:53;1.70;99.90
23122;DHT22;11730;51.248;22.534;2022-12-07T18:14:20;1.70;99.90
23122;DHT22;11730;51.248;22.534;2022-12-07T18:16:47;1.70;99.90
23122;DHT22;11730;51.248;22.534;2022-12-07T18:19:16;1.70;99.90
23122;DHT22;11730;51.248;22.534;2022-12-07T18:21:43;1.80;99.90
23122;DHT22;11730;51.248;22.534;2022-12-07T18:24:12;1.80;99.90
23122;DHT22;11730;51.248;22.534;2022-12-07T18:26:41;1.80;99.90
23122;DHT22;11730;51.248;22.534;2022-12-07T18:29:15;1.80;99.90